Pagina principale
METAR-TAF:

METAR-TAF

Aeroporti :

Gobabis, Namibia

latitudine: 22-30-20S, longitudine: 18-58-30E, altezza: 1468 m

Osservazione

Il bollettino è stato emesso 13 ore e 49 minuti fa, alle 13:00 UTC
Vento 6 kt da est
Temperature 23°C
Umidità 73%
Pressione 1021 hPa

METAR: FYGB 231300Z AUTO 10006KT //// // ////// 23/18 Q1021

Ora: 04:49 (02:49 UTC)


TAF: mancante

Osservazioni e previsioni meteorologiche di più di 4000 aeroporti (messaggi METAR e TAF).

Le stazioni disponibili sono rappresentate dai dischi gialli e rossi sulla carta.

Puntare il mouse per vedere il nome della stazione.

Clicca sopra per visualizzare le osservazioni e previsioni meteorologiche.

Per cambiare la mappa : fare clic sui pulsanti verdi con una croce nera per ingrandire, il pulsante verde con un trattino per diminuire, o sulla freccia verde per le mappe adiacenti.


METAR-TAF: